sensor_id;sensor_type;location;lat;lon;timestamp;P1;durP1;ratioP1;P2;durP2;ratioP2
17564;SDS011;62994;52.126;5.596;2023-10-09T00:01:49;30.23;;;17.98;;
17564;SDS011;62994;52.126;5.596;2023-10-09T00:04:16;27.60;;;16.63;;
17564;SDS011;62994;52.126;5.596;2023-10-09T00:06:45;21.85;;;14.82;;
17564;SDS011;62994;52.126;5.596;2023-10-09T00:09:13;25.88;;;17.15;;
17564;SDS011;62994;52.126;5.596;2023-10-09T00:11:50;27.58;;;17.77;;
17564;SDS011;62994;52.126;5.596;2023-10-09T00:14:24;31.60;;;18.55;;
17564;SDS011;62994;52.126;5.596;2023-10-09T00:16:51;30.08;;;18.45;;
17564;SDS011;62994;52.126;5.596;2023-10-09T00:19:30;27.33;;;17.08;;
17564;SDS011;62994;52.126;5.596;2023-10-09T00:21:58;29.33;;;19.52;;
17564;SDS011;62994;52.126;5.596;2023-10-09T00:24:31;28.88;;;18.13;;
17564;SDS011;62994;52.126;5.596;2023-10-09T00:26:59;34.45;;;19.73;;
17564;SDS011;62994;52.126;5.596;2023-10-09T00:29:38;29.80;;;18.55;;
17564;SDS011;62994;52.126;5.596;2023-10-09T00:32:10;31.77;;;18.90;;
17564;SDS011;62994;52.126;5.596;2023-10-09T00:34:48;30.30;;;19.20;;
17564;SDS011;62994;52.126;5.596;2023-10-09T00:37:16;31.67;;;20.42;;
17564;SDS011;62994;52.126;5.596;2023-10-09T00:39:48;34.13;;;18.35;;
17564;SDS011;62994;52.126;5.596;2023-10-09T00:42:21;39.47;;;20.35;;
17564;SDS011;62994;52.126;5.596;2023-10-09T00:44:55;28.10;;;18.90;;
17564;SDS011;62994;52.126;5.596;2023-10-09T00:47:28;25.65;;;17.80;;
17564;SDS011;62994;52.126;5.596;2023-10-09T00:49:59;31.25;;;19.70;;
17564;SDS011;62994;52.126;5.596;2023-10-09T00:52:36;31.25;;;19.73;;
17564;SDS011;62994;52.126;5.596;2023-10-09T00:55:09;28.75;;;18.30;;
17564;SDS011;62994;52.126;5.596;2023-10-09T00:57:40;33.78;;;19.80;;
17564;SDS011;62994;52.126;5.596;2023-10-09T01:00:17;32.60;;;20.52;;
17564;SDS011;62994;52.126;5.596;2023-10-09T01:02:58;34.92;;;19.92;;
17564;SDS011;62994;52.126;5.596;2023-10-09T01:05:44;30.65;;;18.55;;
17564;SDS011;62994;52.126;5.596;2023-10-09T01:08:17;31.38;;;19.50;;
17564;SDS011;62994;52.126;5.596;2023-10-09T01:10:51;32.92;;;21.58;;
17564;SDS011;62994;52.126;5.596;2023-10-09T01:13:22;35.88;;;22.15;;
17564;SDS011;62994;52.126;5.596;2023-10-09T01:15:58;30.58;;;20.38;;
17564;SDS011;62994;52.126;5.596;2023-10-09T01:18:31;29.20;;;20.25;;
17564;SDS011;62994;52.126;5.596;2023-10-09T01:21:04;35.72;;;21.17;;
17564;SDS011;62994;52.126;5.596;2023-10-09T01:23:32;29.77;;;19.33;;
17564;SDS011;62994;52.126;5.596;2023-10-09T01:26:07;32.70;;;21.42;;
17564;SDS011;62994;52.126;5.596;2023-10-09T01:28:35;29.38;;;20.98;;
17564;SDS011;62994;52.126;5.596;2023-10-09T01:31:03;31.88;;;20.92;;
17564;SDS011;62994;52.126;5.596;2023-10-09T01:33:32;31.75;;;21.33;;
17564;SDS011;62994;52.126;5.596;2023-10-09T01:36:02;29.00;;;20.23;;
17564;SDS011;62994;52.126;5.596;2023-10-09T01:38:31;32.63;;;20.35;;
17564;SDS011;62994;52.126;5.596;2023-10-09T01:41:07;26.23;;;19.42;;
17564;SDS011;62994;52.126;5.596;2023-10-09T01:43:41;28.27;;;18.98;;
17564;SDS011;62994;52.126;5.596;2023-10-09T01:46:10;29.33;;;20.30;;
17564;SDS011;62994;52.126;5.596;2023-10-09T01:48:41;28.40;;;20.52;;
17564;SDS011;62994;52.126;5.596;2023-10-09T01:51:13;30.90;;;20.77;;
17564;SDS011;62994;52.126;5.596;2023-10-09T01:53:44;30.05;;;19.30;;
17564;SDS011;62994;52.126;5.596;2023-10-09T01:56:13;31.88;;;19.30;;
17564;SDS011;62994;52.126;5.596;2023-10-09T01:58:42;35.13;;;20.98;;
17564;SDS011;62994;52.126;5.596;2023-10-09T02:01:13;29.92;;;19.85;;
17564;SDS011;62994;52.126;5.596;2023-10-09T02:03:41;28.20;;;20.00;;
17564;SDS011;62994;52.126;5.596;2023-10-09T02:06:09;29.45;;;20.17;;
17564;SDS011;62994;52.126;5.596;2023-10-09T02:08:53;30.20;;;19.33;;
17564;SDS011;62994;52.126;5.596;2023-10-09T02:11:21;26.20;;;18.95;;
17564;SDS011;62994;52.126;5.596;2023-10-09T02:14:02;22.33;;;17.48;;
17564;SDS011;62994;52.126;5.596;2023-10-09T02:16:41;24.25;;;18.15;;
17564;SDS011;62994;52.126;5.596;2023-10-09T02:19:08;28.95;;;20.23;;
17564;SDS011;62994;52.126;5.596;2023-10-09T02:21:55;24.35;;;18.50;;
17564;SDS011;62994;52.126;5.596;2023-10-09T02:24:26;31.00;;;20.00;;
17564;SDS011;62994;52.126;5.596;2023-10-09T02:27:07;24.30;;;18.45;;
17564;SDS011;62994;52.126;5.596;2023-10-09T02:29:36;27.42;;;19.00;;
17564;SDS011;62994;52.126;5.596;2023-10-09T02:32:07;33.63;;;19.05;;
17564;SDS011;62994;52.126;5.596;2023-10-09T02:34:50;23.55;;;17.98;;
17564;SDS011;62994;52.126;5.596;2023-10-09T02:37:19;26.27;;;18.98;;
17564;SDS011;62994;52.126;5.596;2023-10-09T02:39:51;25.05;;;18.63;;
17564;SDS011;62994;52.126;5.596;2023-10-09T02:42:18;23.55;;;18.15;;
17564;SDS011;62994;52.126;5.596;2023-10-09T02:44:48;24.63;;;17.85;;
17564;SDS011;62994;52.126;5.596;2023-10-09T02:47:16;24.17;;;17.92;;
17564;SDS011;62994;52.126;5.596;2023-10-09T02:49:50;23.10;;;18.02;;
17564;SDS011;62994;52.126;5.596;2023-10-09T02:52:17;19.60;;;16.75;;
17564;SDS011;62994;52.126;5.596;2023-10-09T02:54:52;23.38;;;18.27;;
17564;SDS011;62994;52.126;5.596;2023-10-09T02:57:25;24.70;;;17.65;;
17564;SDS011;62994;52.126;5.596;2023-10-09T03:00:01;25.50;;;18.15;;
17564;SDS011;62994;52.126;5.596;2023-10-09T03:02:33;24.90;;;17.90;;
17564;SDS011;62994;52.126;5.596;2023-10-09T03:05:05;21.73;;;17.35;;
17564;SDS011;62994;52.126;5.596;2023-10-09T03:07:37;23.15;;;18.25;;
17564;SDS011;62994;52.126;5.596;2023-10-09T03:10:07;27.83;;;18.80;;
17564;SDS011;62994;52.126;5.596;2023-10-09T03:12:35;20.08;;;17.27;;
17564;SDS011;62994;52.126;5.596;2023-10-09T03:15:05;24.95;;;17.67;;
17564;SDS011;62994;52.126;5.596;2023-10-09T03:17:34;25.00;;;17.05;;
17564;SDS011;62994;52.126;5.596;2023-10-09T03:20:02;21.80;;;17.10;;
17564;SDS011;62994;52.126;5.596;2023-10-09T03:22:37;18.85;;;16.80;;
17564;SDS011;62994;52.126;5.596;2023-10-09T03:25:04;23.50;;;17.73;;
17564;SDS011;62994;52.126;5.596;2023-10-09T03:27:37;23.00;;;18.08;;
17564;SDS011;62994;52.126;5.596;2023-10-09T03:30:11;21.95;;;16.27;;
17564;SDS011;62994;52.126;5.596;2023-10-09T03:32:42;20.30;;;17.05;;
17564;SDS011;62994;52.126;5.596;2023-10-09T03:35:10;23.38;;;16.33;;
17564;SDS011;62994;52.126;5.596;2023-10-09T03:37:41;19.90;;;15.98;;
17564;SDS011;62994;52.126;5.596;2023-10-09T03:40:11;22.70;;;16.15;;
17564;SDS011;62994;52.126;5.596;2023-10-09T03:42:43;20.02;;;15.80;;
17564;SDS011;62994;52.126;5.596;2023-10-09T03:45:10;24.92;;;16.95;;
17564;SDS011;62994;52.126;5.596;2023-10-09T03:47:50;28.58;;;17.33;;
17564;SDS011;62994;52.126;5.596;2023-10-09T03:50:22;27.95;;;17.23;;
17564;SDS011;62994;52.126;5.596;2023-10-09T03:53:01;20.60;;;15.82;;
17564;SDS011;62994;52.126;5.596;2023-10-09T03:55:33;23.25;;;16.27;;
17564;SDS011;62994;52.126;5.596;2023-10-09T03:58:03;19.83;;;15.45;;
17564;SDS011;62994;52.126;5.596;2023-10-09T04:00:31;25.25;;;15.93;;
17564;SDS011;62994;52.126;5.596;2023-10-09T04:03:10;23.23;;;15.70;;
17564;SDS011;62994;52.126;5.596;2023-10-09T04:05:39;19.23;;;15.18;;
17564;SDS011;62994;52.126;5.596;2023-10-09T04:08:08;20.13;;;15.65;;
17564;SDS011;62994;52.126;5.596;2023-10-09T04:10:46;20.27;;;15.45;;
17564;SDS011;62994;52.126;5.596;2023-10-09T04:13:19;26.63;;;16.05;;
17564;SDS011;62994;52.126;5.596;2023-10-09T04:15:51;20.42;;;15.88;;
17564;SDS011;62994;52.126;5.596;2023-10-09T04:18:19;22.13;;;15.57;;
17564;SDS011;62994;52.126;5.596;2023-10-09T04:20:54;26.77;;;16.35;;
17564;SDS011;62994;52.126;5.596;2023-10-09T04:23:44;18.90;;;15.00;;
17564;SDS011;62994;52.126;5.596;2023-10-09T04:26:36;18.40;;;14.48;;
17564;SDS011;62994;52.126;5.596;2023-10-09T04:29:09;20.17;;;14.68;;
17564;SDS011;62994;52.126;5.596;2023-10-09T04:31:43;21.40;;;15.45;;
17564;SDS011;62994;52.126;5.596;2023-10-09T04:34:16;19.42;;;14.73;;
17564;SDS011;62994;52.126;5.596;2023-10-09T04:36:54;18.00;;;14.80;;
17564;SDS011;62994;52.126;5.596;2023-10-09T04:39:42;17.58;;;13.77;;
17564;SDS011;62994;52.126;5.596;2023-10-09T04:42:14;23.90;;;15.10;;
17564;SDS011;62994;52.126;5.596;2023-10-09T04:44:45;18.33;;;15.18;;
17564;SDS011;62994;52.126;5.596;2023-10-09T04:47:31;21.67;;;14.45;;
17564;SDS011;62994;52.126;5.596;2023-10-09T04:50:14;24.45;;;15.55;;
17564;SDS011;62994;52.126;5.596;2023-10-09T04:52:56;16.75;;;14.23;;
17564;SDS011;62994;52.126;5.596;2023-10-09T04:55:43;22.25;;;15.10;;
17564;SDS011;62994;52.126;5.596;2023-10-09T04:58:20;27.73;;;15.73;;
17564;SDS011;62994;52.126;5.596;2023-10-09T05:00:51;16.15;;;14.32;;
17564;SDS011;62994;52.126;5.596;2023-10-09T05:03:37;18.67;;;14.50;;
17564;SDS011;62994;52.126;5.596;2023-10-09T05:06:11;18.98;;;13.88;;
17564;SDS011;62994;52.126;5.596;2023-10-09T05:08:57;18.27;;;12.80;;
17564;SDS011;62994;52.126;5.596;2023-10-09T05:11:33;18.92;;;13.63;;
17564;SDS011;62994;52.126;5.596;2023-10-09T05:14:19;19.48;;;12.98;;
17564;SDS011;62994;52.126;5.596;2023-10-09T05:17:03;15.43;;;13.13;;
17564;SDS011;62994;52.126;5.596;2023-10-09T05:19:34;19.77;;;12.73;;
17564;SDS011;62994;52.126;5.596;2023-10-09T05:22:24;18.02;;;13.57;;
17564;SDS011;62994;52.126;5.596;2023-10-09T05:25:03;20.15;;;14.27;;
17564;SDS011;62994;52.126;5.596;2023-10-09T05:27:41;14.38;;;12.93;;
17564;SDS011;62994;52.126;5.596;2023-10-09T05:30:16;15.05;;;12.82;;
17564;SDS011;62994;52.126;5.596;2023-10-09T05:32:52;15.60;;;13.40;;
17564;SDS011;62994;52.126;5.596;2023-10-09T05:35:23;15.02;;;12.70;;
17564;SDS011;62994;52.126;5.596;2023-10-09T05:38:06;18.25;;;11.55;;
17564;SDS011;62994;52.126;5.596;2023-10-09T05:40:40;17.25;;;12.40;;
17564;SDS011;62994;52.126;5.596;2023-10-09T05:43:08;20.52;;;13.70;;
17564;SDS011;62994;52.126;5.596;2023-10-09T05:45:57;18.20;;;12.10;;
17564;SDS011;62994;52.126;5.596;2023-10-09T05:48:40;14.82;;;11.57;;
17564;SDS011;62994;52.126;5.596;2023-10-09T05:51:34;19.35;;;11.77;;
17564;SDS011;62994;52.126;5.596;2023-10-09T05:54:09;15.48;;;11.93;;
17564;SDS011;62994;52.126;5.596;2023-10-09T05:57:09;11.80;;;10.70;;
17564;SDS011;62994;52.126;5.596;2023-10-09T05:59:59;12.85;;;11.43;;
17564;SDS011;62994;52.126;5.596;2023-10-09T06:02:44;12.65;;;11.32;;
17564;SDS011;62994;52.126;5.596;2023-10-09T06:05:29;11.40;;;10.20;;
17564;SDS011;62994;52.126;5.596;2023-10-09T06:08:27;14.00;;;11.32;;
17564;SDS011;62994;52.126;5.596;2023-10-09T06:11:24;13.40;;;11.32;;
17564;SDS011;62994;52.126;5.596;2023-10-09T06:14:07;14.85;;;10.50;;
17564;SDS011;62994;52.126;5.596;2023-10-09T06:16:39;20.80;;;11.15;;
17564;SDS011;62994;52.126;5.596;2023-10-09T06:19:26;15.65;;;11.13;;
17564;SDS011;62994;52.126;5.596;2023-10-09T06:21:57;10.35;;;9.38;;
17564;SDS011;62994;52.126;5.596;2023-10-09T06:24:55;12.88;;;10.25;;
17564;SDS011;62994;52.126;5.596;2023-10-09T06:27:22;13.40;;;10.63;;
17564;SDS011;62994;52.126;5.596;2023-10-09T06:30:12;11.05;;;9.90;;
17564;SDS011;62994;52.126;5.596;2023-10-09T06:32:40;12.38;;;9.77;;
17564;SDS011;62994;52.126;5.596;2023-10-09T06:35:17;10.98;;;9.98;;
17564;SDS011;62994;52.126;5.596;2023-10-09T06:37:47;10.88;;;9.85;;
17564;SDS011;62994;52.126;5.596;2023-10-09T06:40:33;11.40;;;10.02;;
17564;SDS011;62994;52.126;5.596;2023-10-09T06:43:18;10.18;;;9.25;;
17564;SDS011;62994;52.126;5.596;2023-10-09T06:45:53;16.33;;;10.65;;
17564;SDS011;62994;52.126;5.596;2023-10-09T06:48:23;13.45;;;10.80;;
17564;SDS011;62994;52.126;5.596;2023-10-09T06:51:12;12.38;;;10.15;;
17564;SDS011;62994;52.126;5.596;2023-10-09T06:54:01;15.77;;;10.23;;
17564;SDS011;62994;52.126;5.596;2023-10-09T06:56:40;13.55;;;10.27;;
17564;SDS011;62994;52.126;5.596;2023-10-09T06:59:24;16.52;;;10.55;;
17564;SDS011;62994;52.126;5.596;2023-10-09T07:02:07;10.30;;;9.25;;
17564;SDS011;62994;52.126;5.596;2023-10-09T07:04:48;14.85;;;10.13;;
17564;SDS011;62994;52.126;5.596;2023-10-09T07:07:21;10.98;;;9.93;;
17564;SDS011;62994;52.126;5.596;2023-10-09T07:09:50;10.90;;;9.45;;
17564;SDS011;62994;52.126;5.596;2023-10-09T07:12:37;13.38;;;9.55;;
17564;SDS011;62994;52.126;5.596;2023-10-09T07:15:09;13.60;;;9.82;;
17564;SDS011;62994;52.126;5.596;2023-10-09T07:17:55;12.70;;;9.38;;
17564;SDS011;62994;52.126;5.596;2023-10-09T07:20:42;13.73;;;9.60;;
17564;SDS011;62994;52.126;5.596;2023-10-09T07:23:25;10.13;;;8.95;;
17564;SDS011;62994;52.126;5.596;2023-10-09T07:26:01;11.95;;;9.73;;
17564;SDS011;62994;52.126;5.596;2023-10-09T07:28:43;12.65;;;9.23;;
17564;SDS011;62994;52.126;5.596;2023-10-09T07:31:16;11.38;;;10.10;;
17564;SDS011;62994;52.126;5.596;2023-10-09T07:34:05;17.10;;;9.90;;
17564;SDS011;62994;52.126;5.596;2023-10-09T07:36:55;10.07;;;8.73;;
17564;SDS011;62994;52.126;5.596;2023-10-09T07:39:24;10.80;;;9.15;;
17564;SDS011;62994;52.126;5.596;2023-10-09T07:41:59;9.60;;;8.70;;
17564;SDS011;62994;52.126;5.596;2023-10-09T07:44:45;13.63;;;8.93;;
17564;SDS011;62994;52.126;5.596;2023-10-09T07:47:18;10.60;;;9.40;;
17564;SDS011;62994;52.126;5.596;2023-10-09T07:50:25;13.35;;;9.00;;
17564;SDS011;62994;52.126;5.596;2023-10-09T07:53:03;9.32;;;8.32;;
17564;SDS011;62994;52.126;5.596;2023-10-09T07:55:45;13.88;;;9.65;;
17564;SDS011;62994;52.126;5.596;2023-10-09T07:58:19;9.50;;;8.55;;
17564;SDS011;62994;52.126;5.596;2023-10-09T08:00:50;10.70;;;9.27;;
17564;SDS011;62994;52.126;5.596;2023-10-09T08:03:41;11.38;;;10.25;;
17564;SDS011;62994;52.126;5.596;2023-10-09T08:06:11;10.00;;;8.95;;
17564;SDS011;62994;52.126;5.596;2023-10-09T08:08:55;9.88;;;9.07;;
17564;SDS011;62994;52.126;5.596;2023-10-09T08:11:42;13.70;;;9.68;;
17564;SDS011;62994;52.126;5.596;2023-10-09T08:14:30;10.73;;;9.63;;
17564;SDS011;62994;52.126;5.596;2023-10-09T08:17:17;15.57;;;10.18;;
17564;SDS011;62994;52.126;5.596;2023-10-09T08:19:47;13.68;;;9.32;;
17564;SDS011;62994;52.126;5.596;2023-10-09T08:22:21;12.70;;;8.63;;
17564;SDS011;62994;52.126;5.596;2023-10-09T08:25:07;9.60;;;8.80;;
17564;SDS011;62994;52.126;5.596;2023-10-09T08:27:53;13.63;;;8.50;;
17564;SDS011;62994;52.126;5.596;2023-10-09T08:30:20;8.75;;;7.95;;
17564;SDS011;62994;52.126;5.596;2023-10-09T08:33:10;10.20;;;8.90;;
17564;SDS011;62994;52.126;5.596;2023-10-09T08:35:52;9.82;;;8.07;;
17564;SDS011;62994;52.126;5.596;2023-10-09T08:38:27;14.35;;;8.32;;
17564;SDS011;62994;52.126;5.596;2023-10-09T08:41:05;13.70;;;8.95;;
17564;SDS011;62994;52.126;5.596;2023-10-09T08:43:45;9.48;;;8.45;;
17564;SDS011;62994;52.126;5.596;2023-10-09T08:46:17;9.50;;;8.75;;
17564;SDS011;62994;52.126;5.596;2023-10-09T08:48:47;11.63;;;8.73;;
17564;SDS011;62994;52.126;5.596;2023-10-09T08:51:16;8.95;;;8.13;;
17564;SDS011;62994;52.126;5.596;2023-10-09T08:53:45;10.50;;;8.75;;
17564;SDS011;62994;52.126;5.596;2023-10-09T08:56:13;10.63;;;7.88;;
17564;SDS011;62994;52.126;5.596;2023-10-09T08:58:49;9.60;;;8.35;;
17564;SDS011;62994;52.126;5.596;2023-10-09T09:01:18;9.60;;;8.20;;
17564;SDS011;62994;52.126;5.596;2023-10-09T09:03:47;12.02;;;7.82;;
17564;SDS011;62994;52.126;5.596;2023-10-09T09:06:15;9.18;;;8.45;;
17564;SDS011;62994;52.126;5.596;2023-10-09T09:08:44;8.43;;;7.63;;
17564;SDS011;62994;52.126;5.596;2023-10-09T09:11:13;13.48;;;7.78;;
17564;SDS011;62994;52.126;5.596;2023-10-09T09:13:43;9.05;;;8.02;;
17564;SDS011;62994;52.126;5.596;2023-10-09T09:16:17;10.70;;;8.35;;
17564;SDS011;62994;52.126;5.596;2023-10-09T09:18:49;8.52;;;7.35;;
17564;SDS011;62994;52.126;5.596;2023-10-09T09:21:25;11.27;;;7.30;;
17564;SDS011;62994;52.126;5.596;2023-10-09T09:23:54;9.15;;;7.45;;
17564;SDS011;62994;52.126;5.596;2023-10-09T09:26:34;8.65;;;7.47;;
17564;SDS011;62994;52.126;5.596;2023-10-09T09:29:03;7.72;;;7.15;;
17564;SDS011;62994;52.126;5.596;2023-10-09T09:31:33;10.65;;;6.90;;
17564;SDS011;62994;52.126;5.596;2023-10-09T09:34:04;9.65;;;7.32;;
17564;SDS011;62994;52.126;5.596;2023-10-09T09:36:51;11.02;;;7.05;;
17564;SDS011;62994;52.126;5.596;2023-10-09T09:39:24;7.25;;;6.65;;
17564;SDS011;62994;52.126;5.596;2023-10-09T09:41:56;8.90;;;6.45;;
17564;SDS011;62994;52.126;5.596;2023-10-09T09:44:31;6.53;;;6.03;;
17564;SDS011;62994;52.126;5.596;2023-10-09T09:47:10;7.45;;;6.15;;
17564;SDS011;62994;52.126;5.596;2023-10-09T09:49:48;7.63;;;6.47;;
17564;SDS011;62994;52.126;5.596;2023-10-09T09:52:25;7.43;;;5.97;;
17564;SDS011;62994;52.126;5.596;2023-10-09T09:55:03;5.80;;;5.35;;
17564;SDS011;62994;52.126;5.596;2023-10-09T09:57:32;6.28;;;5.68;;
17564;SDS011;62994;52.126;5.596;2023-10-09T10:00:06;6.68;;;5.93;;
17564;SDS011;62994;52.126;5.596;2023-10-09T10:02:54;7.45;;;6.38;;
17564;SDS011;62994;52.126;5.596;2023-10-09T10:05:27;6.35;;;5.90;;
17564;SDS011;62994;52.126;5.596;2023-10-09T10:07:57;7.55;;;5.32;;
17564;SDS011;62994;52.126;5.596;2023-10-09T10:10:35;8.38;;;5.20;;
17564;SDS011;62994;52.126;5.596;2023-10-09T10:13:04;7.68;;;5.45;;
17564;SDS011;62994;52.126;5.596;2023-10-09T10:18:55;7.03;;;6.28;;
17564;SDS011;62994;52.126;5.596;2023-10-09T10:21:32;5.40;;;4.90;;
17564;SDS011;62994;52.126;5.596;2023-10-09T10:24:04;7.53;;;5.57;;
17564;SDS011;62994;52.126;5.596;2023-10-09T10:26:48;6.97;;;5.40;;
17564;SDS011;62994;52.126;5.596;2023-10-09T10:32:54;7.28;;;6.00;;
17564;SDS011;62994;52.126;5.596;2023-10-09T10:35:24;6.40;;;5.93;;
17564;SDS011;62994;52.126;5.596;2023-10-09T10:40:52;6.45;;;5.90;;
17564;SDS011;62994;52.126;5.596;2023-10-09T10:43:24;6.13;;;5.47;;
17564;SDS011;62994;52.126;5.596;2023-10-09T10:46:11;8.15;;;5.57;;
17564;SDS011;62994;52.126;5.596;2023-10-09T10:48:49;9.05;;;5.82;;
17564;SDS011;62994;52.126;5.596;2023-10-09T10:51:26;7.72;;;5.40;;
17564;SDS011;62994;52.126;5.596;2023-10-09T10:54:01;8.45;;;5.10;;
17564;SDS011;62994;52.126;5.596;2023-10-09T10:56:42;7.07;;;5.00;;
17564;SDS011;62994;52.126;5.596;2023-10-09T10:59:10;6.97;;;5.22;;
17564;SDS011;62994;52.126;5.596;2023-10-09T11:01:38;8.00;;;5.35;;
17564;SDS011;62994;52.126;5.596;2023-10-09T11:04:19;5.53;;;4.97;;
17564;SDS011;62994;52.126;5.596;2023-10-09T11:07:05;5.68;;;5.13;;
17564;SDS011;62994;52.126;5.596;2023-10-09T11:09:45;9.05;;;5.05;;
17564;SDS011;62994;52.126;5.596;2023-10-09T11:12:43;8.23;;;5.13;;
17564;SDS011;62994;52.126;5.596;2023-10-09T11:15:32;10.77;;;5.15;;
17564;SDS011;62994;52.126;5.596;2023-10-09T11:18:09;8.07;;;5.40;;
17564;SDS011;62994;52.126;5.596;2023-10-09T11:20:45;6.38;;;5.10;;
17564;SDS011;62994;52.126;5.596;2023-10-09T11:23:23;6.72;;;5.07;;
17564;SDS011;62994;52.126;5.596;2023-10-09T11:26:02;5.32;;;4.82;;
17564;SDS011;62994;52.126;5.596;2023-10-09T11:28:46;5.50;;;5.10;;
17564;SDS011;62994;52.126;5.596;2023-10-09T11:31:38;6.55;;;4.85;;
17564;SDS011;62994;52.126;5.596;2023-10-09T11:34:05;6.70;;;5.10;;
17564;SDS011;62994;52.126;5.596;2023-10-09T11:36:55;9.98;;;5.25;;
17564;SDS011;62994;52.126;5.596;2023-10-09T11:39:27;5.15;;;4.65;;
17564;SDS011;62994;52.126;5.596;2023-10-09T11:42:05;6.90;;;5.18;;
17564;SDS011;62994;52.126;5.596;2023-10-09T11:44:36;5.30;;;4.85;;
17564;SDS011;62994;52.126;5.596;2023-10-09T11:47:06;6.20;;;4.97;;
17564;SDS011;62994;52.126;5.596;2023-10-09T11:49:58;5.40;;;4.82;;
17564;SDS011;62994;52.126;5.596;2023-10-09T11:52:54;6.43;;;5.22;;
17564;SDS011;62994;52.126;5.596;2023-10-09T11:55:36;4.97;;;4.53;;
17564;SDS011;62994;52.126;5.596;2023-10-09T11:58:03;11.52;;;5.20;;
17564;SDS011;62994;52.126;5.596;2023-10-09T12:00:32;5.15;;;4.68;;
17564;SDS011;62994;52.126;5.596;2023-10-09T12:03:09;5.97;;;4.65;;
17564;SDS011;62994;52.126;5.596;2023-10-09T12:05:42;5.25;;;4.85;;
17564;SDS011;62994;52.126;5.596;2023-10-09T12:08:09;5.63;;;5.05;;
17564;SDS011;62994;52.126;5.596;2023-10-09T12:10:42;6.53;;;5.03;;
17564;SDS011;62994;52.126;5.596;2023-10-09T12:13:12;5.75;;;4.45;;
17564;SDS011;62994;52.126;5.596;2023-10-09T12:15:40;6.10;;;4.18;;
17564;SDS011;62994;52.126;5.596;2023-10-09T12:18:11;4.75;;;4.20;;
17564;SDS011;62994;52.126;5.596;2023-10-09T12:20:41;6.30;;;4.32;;
17564;SDS011;62994;52.126;5.596;2023-10-09T12:23:15;5.05;;;4.47;;
17564;SDS011;62994;52.126;5.596;2023-10-09T12:25:43;5.20;;;4.45;;
17564;SDS011;62994;52.126;5.596;2023-10-09T12:28:11;5.75;;;4.32;;
17564;SDS011;62994;52.126;5.596;2023-10-09T12:30:45;6.43;;;5.20;;
17564;SDS011;62994;52.126;5.596;2023-10-09T12:33:15;4.93;;;4.53;;
17564;SDS011;62994;52.126;5.596;2023-10-09T12:35:43;6.15;;;5.32;;
17564;SDS011;62994;52.126;5.596;2023-10-09T12:38:12;4.45;;;4.15;;
17564;SDS011;62994;52.126;5.596;2023-10-09T12:40:45;5.97;;;4.47;;
17564;SDS011;62994;52.126;5.596;2023-10-09T12:43:17;4.55;;;4.05;;
17564;SDS011;62994;52.126;5.596;2023-10-09T12:45:45;5.25;;;4.80;;
17564;SDS011;62994;52.126;5.596;2023-10-09T12:48:12;5.55;;;4.95;;
17564;SDS011;62994;52.126;5.596;2023-10-09T12:50:40;4.75;;;4.35;;
17564;SDS011;62994;52.126;5.596;2023-10-09T12:53:09;5.35;;;4.60;;
17564;SDS011;62994;52.126;5.596;2023-10-09T12:55:43;5.30;;;4.30;;
17564;SDS011;62994;52.126;5.596;2023-10-09T12:58:11;6.93;;;4.90;;
17564;SDS011;62994;52.126;5.596;2023-10-09T13:00:41;6.80;;;4.88;;
17564;SDS011;62994;52.126;5.596;2023-10-09T13:03:13;8.80;;;5.18;;
17564;SDS011;62994;52.126;5.596;2023-10-09T13:05:45;5.57;;;4.80;;
17564;SDS011;62994;52.126;5.596;2023-10-09T13:08:20;9.98;;;5.43;;
17564;SDS011;62994;52.126;5.596;2023-10-09T13:10:49;5.32;;;4.65;;
17564;SDS011;62994;52.126;5.596;2023-10-09T13:13:26;6.90;;;4.82;;
17564;SDS011;62994;52.126;5.596;2023-10-09T13:16:07;5.03;;;4.50;;
17564;SDS011;62994;52.126;5.596;2023-10-09T13:18:37;5.88;;;4.97;;
17564;SDS011;62994;52.126;5.596;2023-10-09T13:21:05;8.88;;;4.68;;
17564;SDS011;62994;52.126;5.596;2023-10-09T13:23:32;5.40;;;4.38;;
17564;SDS011;62994;52.126;5.596;2023-10-09T13:26:09;4.75;;;4.22;;
17564;SDS011;62994;52.126;5.596;2023-10-09T13:28:47;5.32;;;4.45;;
17564;SDS011;62994;52.126;5.596;2023-10-09T13:31:15;5.40;;;4.53;;
17564;SDS011;62994;52.126;5.596;2023-10-09T13:33:43;5.00;;;4.45;;
17564;SDS011;62994;52.126;5.596;2023-10-09T13:36:11;7.50;;;4.38;;
17564;SDS011;62994;52.126;5.596;2023-10-09T13:38:44;4.55;;;4.18;;
17564;SDS011;62994;52.126;5.596;2023-10-09T13:41:13;4.93;;;4.13;;
17564;SDS011;62994;52.126;5.596;2023-10-09T13:43:43;5.60;;;4.80;;
17564;SDS011;62994;52.126;5.596;2023-10-09T13:46:10;8.27;;;4.93;;
17564;SDS011;62994;52.126;5.596;2023-10-09T13:48:39;5.95;;;4.45;;
17564;SDS011;62994;52.126;5.596;2023-10-09T13:51:08;6.63;;;4.70;;
17564;SDS011;62994;52.126;5.596;2023-10-09T13:53:39;7.80;;;5.18;;
17564;SDS011;62994;52.126;5.596;2023-10-09T13:56:13;6.15;;;4.72;;
17564;SDS011;62994;52.126;5.596;2023-10-09T13:58:44;5.95;;;5.00;;
17564;SDS011;62994;52.126;5.596;2023-10-09T14:01:11;8.30;;;5.30;;
17564;SDS011;62994;52.126;5.596;2023-10-09T14:03:46;4.93;;;4.45;;
17564;SDS011;62994;52.126;5.596;2023-10-09T14:06:16;5.38;;;4.85;;
17564;SDS011;62994;52.126;5.596;2023-10-09T14:08:55;8.38;;;5.30;;
17564;SDS011;62994;52.126;5.596;2023-10-09T14:11:24;4.63;;;4.22;;
17564;SDS011;62994;52.126;5.596;2023-10-09T14:13:51;11.38;;;5.10;;
17564;SDS011;62994;52.126;5.596;2023-10-09T14:16:19;5.82;;;4.70;;
17564;SDS011;62994;52.126;5.596;2023-10-09T14:18:56;9.10;;;5.03;;
17564;SDS011;62994;52.126;5.596;2023-10-09T14:21:25;6.20;;;4.90;;
17564;SDS011;62994;52.126;5.596;2023-10-09T14:23:55;6.43;;;5.05;;
17564;SDS011;62994;52.126;5.596;2023-10-09T14:26:25;10.15;;;4.38;;
17564;SDS011;62994;52.126;5.596;2023-10-09T14:28:53;6.72;;;4.75;;
17564;SDS011;62994;52.126;5.596;2023-10-09T14:31:22;4.80;;;4.40;;
17564;SDS011;62994;52.126;5.596;2023-10-09T14:33:53;9.23;;;4.65;;
17564;SDS011;62994;52.126;5.596;2023-10-09T14:36:22;9.07;;;5.00;;
17564;SDS011;62994;52.126;5.596;2023-10-09T14:38:50;7.10;;;4.60;;
17564;SDS011;62994;52.126;5.596;2023-10-09T14:41:19;6.93;;;5.13;;
17564;SDS011;62994;52.126;5.596;2023-10-09T14:43:50;5.47;;;4.18;;
17564;SDS011;62994;52.126;5.596;2023-10-09T14:46:17;5.03;;;4.55;;
17564;SDS011;62994;52.126;5.596;2023-10-09T14:48:48;5.55;;;4.50;;
17564;SDS011;62994;52.126;5.596;2023-10-09T14:51:18;5.22;;;4.53;;
17564;SDS011;62994;52.126;5.596;2023-10-09T14:53:52;4.95;;;4.10;;
17564;SDS011;62994;52.126;5.596;2023-10-09T14:56:22;5.38;;;4.95;;
17564;SDS011;62994;52.126;5.596;2023-10-09T14:58:55;4.90;;;4.50;;
17564;SDS011;62994;52.126;5.596;2023-10-09T15:01:23;7.93;;;5.03;;
17564;SDS011;62994;52.126;5.596;2023-10-09T15:03:53;6.40;;;4.95;;
17564;SDS011;62994;52.126;5.596;2023-10-09T15:06:24;6.50;;;5.20;;
17564;SDS011;62994;52.126;5.596;2023-10-09T15:08:55;5.97;;;4.60;;
17564;SDS011;62994;52.126;5.596;2023-10-09T15:11:22;10.52;;;6.25;;
17564;SDS011;62994;52.126;5.596;2023-10-09T15:13:50;7.53;;;5.40;;
17564;SDS011;62994;52.126;5.596;2023-10-09T15:16:25;9.75;;;5.88;;
17564;SDS011;62994;52.126;5.596;2023-10-09T15:18:54;10.00;;;5.07;;
17564;SDS011;62994;52.126;5.596;2023-10-09T15:21:22;6.95;;;5.47;;
17564;SDS011;62994;52.126;5.596;2023-10-09T15:23:51;6.78;;;4.93;;
17564;SDS011;62994;52.126;5.596;2023-10-09T15:26:19;11.13;;;5.60;;
17564;SDS011;62994;52.126;5.596;2023-10-09T15:28:48;14.27;;;6.15;;